sensor_id;sensor_type;location;lat;lon;timestamp;P1;durP1;ratioP1;P2;durP2;ratioP2
67156;SDS011;54086;50.126;8.710;2023-04-06T00:00:48;16.38;;;7.80;;
67156;SDS011;54086;50.126;8.710;2023-04-06T00:03:14;14.93;;;7.15;;
67156;SDS011;54086;50.126;8.710;2023-04-06T00:05:39;14.53;;;7.50;;
67156;SDS011;54086;50.126;8.710;2023-04-06T00:08:05;14.07;;;7.10;;
67156;SDS011;54086;50.126;8.710;2023-04-06T00:10:30;11.97;;;6.53;;
67156;SDS011;54086;50.126;8.710;2023-04-06T00:12:56;14.70;;;7.37;;
67156;SDS011;54086;50.126;8.710;2023-04-06T00:15:22;15.18;;;7.00;;
67156;SDS011;54086;50.126;8.710;2023-04-06T00:17:48;13.52;;;7.22;;
67156;SDS011;54086;50.126;8.710;2023-04-06T00:20:13;12.87;;;6.87;;
67156;SDS011;54086;50.126;8.710;2023-04-06T00:22:39;13.32;;;6.20;;
67156;SDS011;54086;50.126;8.710;2023-04-06T00:25:05;13.95;;;6.28;;
67156;SDS011;54086;50.126;8.710;2023-04-06T00:27:31;13.67;;;7.30;;
67156;SDS011;54086;50.126;8.710;2023-04-06T00:29:56;14.37;;;7.23;;
67156;SDS011;54086;50.126;8.710;2023-04-06T00:32:21;13.35;;;6.53;;
67156;SDS011;54086;50.126;8.710;2023-04-06T00:34:47;13.73;;;7.00;;
67156;SDS011;54086;50.126;8.710;2023-04-06T00:37:12;12.47;;;6.77;;
67156;SDS011;54086;50.126;8.710;2023-04-06T00:39:38;12.97;;;6.77;;
67156;SDS011;54086;50.126;8.710;2023-04-06T00:42:07;13.18;;;6.93;;
67156;SDS011;54086;50.126;8.710;2023-04-06T00:44:38;13.17;;;6.97;;
67156;SDS011;54086;50.126;8.710;2023-04-06T00:47:04;13.20;;;6.55;;
67156;SDS011;54086;50.126;8.710;2023-04-06T00:49:30;13.50;;;6.80;;
67156;SDS011;54086;50.126;8.710;2023-04-06T00:51:55;13.05;;;6.47;;
67156;SDS011;54086;50.126;8.710;2023-04-06T00:54:20;12.27;;;6.13;;
67156;SDS011;54086;50.126;8.710;2023-04-06T00:56:46;14.17;;;6.60;;
67156;SDS011;54086;50.126;8.710;2023-04-06T00:59:11;12.60;;;6.10;;
67156;SDS011;54086;50.126;8.710;2023-04-06T01:01:37;13.52;;;6.85;;
67156;SDS011;54086;50.126;8.710;2023-04-06T01:04:02;15.80;;;6.73;;
67156;SDS011;54086;50.126;8.710;2023-04-06T01:06:28;15.33;;;6.80;;
67156;SDS011;54086;50.126;8.710;2023-04-06T01:08:54;16.05;;;6.53;;
67156;SDS011;54086;50.126;8.710;2023-04-06T01:11:20;13.87;;;7.03;;
67156;SDS011;54086;50.126;8.710;2023-04-06T01:13:45;14.10;;;7.50;;
67156;SDS011;54086;50.126;8.710;2023-04-06T01:16:11;13.67;;;6.50;;
67156;SDS011;54086;50.126;8.710;2023-04-06T01:18:37;12.15;;;6.90;;
67156;SDS011;54086;50.126;8.710;2023-04-06T01:21:03;14.40;;;6.25;;
67156;SDS011;54086;50.126;8.710;2023-04-06T01:23:28;12.87;;;6.90;;
67156;SDS011;54086;50.126;8.710;2023-04-06T01:25:53;15.20;;;7.30;;
67156;SDS011;54086;50.126;8.710;2023-04-06T01:28:19;13.67;;;7.23;;
67156;SDS011;54086;50.126;8.710;2023-04-06T01:30:45;13.27;;;6.50;;
67156;SDS011;54086;50.126;8.710;2023-04-06T01:33:10;12.87;;;6.53;;
67156;SDS011;54086;50.126;8.710;2023-04-06T01:35:35;14.17;;;6.90;;
67156;SDS011;54086;50.126;8.710;2023-04-06T01:38:01;11.75;;;6.25;;
67156;SDS011;54086;50.126;8.710;2023-04-06T01:40:27;14.70;;;7.13;;
67156;SDS011;54086;50.126;8.710;2023-04-06T01:42:52;12.77;;;6.47;;
67156;SDS011;54086;50.126;8.710;2023-04-06T01:45:18;13.95;;;6.75;;
67156;SDS011;54086;50.126;8.710;2023-04-06T01:47:43;14.33;;;6.60;;
67156;SDS011;54086;50.126;8.710;2023-04-06T01:50:08;11.93;;;6.70;;
67156;SDS011;54086;50.126;8.710;2023-04-06T01:52:34;13.55;;;6.80;;
67156;SDS011;54086;50.126;8.710;2023-04-06T01:55:00;10.60;;;6.10;;
67156;SDS011;54086;50.126;8.710;2023-04-06T01:57:25;12.90;;;6.07;;
67156;SDS011;54086;50.126;8.710;2023-04-06T01:59:51;12.80;;;6.57;;
67156;SDS011;54086;50.126;8.710;2023-04-06T02:02:16;12.82;;;6.25;;
67156;SDS011;54086;50.126;8.710;2023-04-06T02:04:42;12.63;;;6.60;;
67156;SDS011;54086;50.126;8.710;2023-04-06T02:07:07;14.73;;;6.77;;
67156;SDS011;54086;50.126;8.710;2023-04-06T02:09:33;14.13;;;6.70;;
67156;SDS011;54086;50.126;8.710;2023-04-06T02:11:58;17.50;;;7.50;;
67156;SDS011;54086;50.126;8.710;2023-04-06T02:14:24;14.53;;;6.70;;
67156;SDS011;54086;50.126;8.710;2023-04-06T02:16:50;14.88;;;6.80;;
67156;SDS011;54086;50.126;8.710;2023-04-06T02:19:16;14.77;;;7.77;;
67156;SDS011;54086;50.126;8.710;2023-04-06T02:21:41;12.82;;;6.53;;
67156;SDS011;54086;50.126;8.710;2023-04-06T02:24:07;13.10;;;6.67;;
67156;SDS011;54086;50.126;8.710;2023-04-06T02:26:32;12.77;;;7.03;;
67156;SDS011;54086;50.126;8.710;2023-04-06T02:28:58;14.20;;;6.95;;
67156;SDS011;54086;50.126;8.710;2023-04-06T02:31:23;15.57;;;7.40;;
67156;SDS011;54086;50.126;8.710;2023-04-06T02:33:49;14.30;;;6.37;;
67156;SDS011;54086;50.126;8.710;2023-04-06T02:36:14;15.07;;;7.30;;
67156;SDS011;54086;50.126;8.710;2023-04-06T02:38:40;14.40;;;7.10;;
67156;SDS011;54086;50.126;8.710;2023-04-06T02:41:05;13.50;;;6.87;;
67156;SDS011;54086;50.126;8.710;2023-04-06T02:43:31;14.40;;;6.63;;
67156;SDS011;54086;50.126;8.710;2023-04-06T02:45:57;14.10;;;8.20;;
67156;SDS011;54086;50.126;8.710;2023-04-06T02:48:22;12.70;;;7.03;;
67156;SDS011;54086;50.126;8.710;2023-04-06T02:50:48;12.83;;;6.80;;
67156;SDS011;54086;50.126;8.710;2023-04-06T02:53:14;14.43;;;7.15;;
67156;SDS011;54086;50.126;8.710;2023-04-06T02:55:39;14.37;;;7.27;;
67156;SDS011;54086;50.126;8.710;2023-04-06T02:58:05;11.07;;;6.27;;
67156;SDS011;54086;50.126;8.710;2023-04-06T03:00:30;13.47;;;7.00;;
67156;SDS011;54086;50.126;8.710;2023-04-06T03:02:55;11.55;;;6.43;;
67156;SDS011;54086;50.126;8.710;2023-04-06T03:05:21;14.23;;;7.03;;
67156;SDS011;54086;50.126;8.710;2023-04-06T03:07:46;14.97;;;7.60;;
67156;SDS011;54086;50.126;8.710;2023-04-06T03:10:12;13.13;;;7.13;;
67156;SDS011;54086;50.126;8.710;2023-04-06T03:12:37;15.27;;;6.93;;
67156;SDS011;54086;50.126;8.710;2023-04-06T03:15:02;13.60;;;7.18;;
67156;SDS011;54086;50.126;8.710;2023-04-06T03:17:28;16.63;;;6.90;;
67156;SDS011;54086;50.126;8.710;2023-04-06T03:19:54;13.15;;;7.18;;
67156;SDS011;54086;50.126;8.710;2023-04-06T03:22:19;16.93;;;7.40;;
67156;SDS011;54086;50.126;8.710;2023-04-06T03:24:45;14.10;;;7.18;;
67156;SDS011;54086;50.126;8.710;2023-04-06T03:27:11;15.50;;;7.50;;
67156;SDS011;54086;50.126;8.710;2023-04-06T03:29:36;12.83;;;7.30;;
67156;SDS011;54086;50.126;8.710;2023-04-06T03:32:02;12.30;;;6.73;;
67156;SDS011;54086;50.126;8.710;2023-04-06T03:34:27;14.80;;;7.67;;
67156;SDS011;54086;50.126;8.710;2023-04-06T03:36:52;17.60;;;8.23;;
67156;SDS011;54086;50.126;8.710;2023-04-06T03:39:18;13.50;;;7.13;;
67156;SDS011;54086;50.126;8.710;2023-04-06T03:41:43;16.85;;;7.47;;
67156;SDS011;54086;50.126;8.710;2023-04-06T03:44:09;14.30;;;7.17;;
67156;SDS011;54086;50.126;8.710;2023-04-06T03:46:35;14.88;;;6.57;;
67156;SDS011;54086;50.126;8.710;2023-04-06T03:49:00;15.40;;;7.30;;
67156;SDS011;54086;50.126;8.710;2023-04-06T03:51:26;12.93;;;6.47;;
67156;SDS011;54086;50.126;8.710;2023-04-06T03:53:52;12.60;;;6.97;;
67156;SDS011;54086;50.126;8.710;2023-04-06T03:56:18;13.23;;;7.03;;
67156;SDS011;54086;50.126;8.710;2023-04-06T03:58:43;12.73;;;6.53;;
67156;SDS011;54086;50.126;8.710;2023-04-06T04:01:10;15.70;;;7.07;;
67156;SDS011;54086;50.126;8.710;2023-04-06T04:03:35;14.80;;;7.78;;
67156;SDS011;54086;50.126;8.710;2023-04-06T04:06:01;18.97;;;7.87;;
67156;SDS011;54086;50.126;8.710;2023-04-06T04:08:26;14.93;;;8.35;;
67156;SDS011;54086;50.126;8.710;2023-04-06T04:10:52;15.10;;;7.77;;
67156;SDS011;54086;50.126;8.710;2023-04-06T04:13:17;14.80;;;7.43;;
67156;SDS011;54086;50.126;8.710;2023-04-06T04:15:43;15.75;;;7.93;;
67156;SDS011;54086;50.126;8.710;2023-04-06T04:18:09;15.53;;;7.20;;
67156;SDS011;54086;50.126;8.710;2023-04-06T04:20:34;18.63;;;7.50;;
67156;SDS011;54086;50.126;8.710;2023-04-06T04:23:00;53.90;;;10.35;;
67156;SDS011;54086;50.126;8.710;2023-04-06T04:25:25;14.87;;;6.77;;
67156;SDS011;54086;50.126;8.710;2023-04-06T04:27:51;13.93;;;7.63;;
67156;SDS011;54086;50.126;8.710;2023-04-06T04:30:16;19.83;;;8.60;;
67156;SDS011;54086;50.126;8.710;2023-04-06T04:32:41;15.40;;;7.18;;
67156;SDS011;54086;50.126;8.710;2023-04-06T04:35:07;14.17;;;7.13;;
67156;SDS011;54086;50.126;8.710;2023-04-06T04:37:33;14.30;;;6.45;;
67156;SDS011;54086;50.126;8.710;2023-04-06T04:40:00;13.00;;;6.67;;
67156;SDS011;54086;50.126;8.710;2023-04-06T04:42:25;14.13;;;7.28;;
67156;SDS011;54086;50.126;8.710;2023-04-06T04:44:51;16.03;;;7.57;;
67156;SDS011;54086;50.126;8.710;2023-04-06T04:47:16;19.90;;;6.93;;
67156;SDS011;54086;50.126;8.710;2023-04-06T04:49:42;19.33;;;7.63;;
67156;SDS011;54086;50.126;8.710;2023-04-06T04:52:07;15.10;;;7.27;;
67156;SDS011;54086;50.126;8.710;2023-04-06T04:54:33;15.23;;;7.23;;
67156;SDS011;54086;50.126;8.710;2023-04-06T04:56:58;15.75;;;6.95;;
67156;SDS011;54086;50.126;8.710;2023-04-06T04:59:24;14.50;;;7.17;;
67156;SDS011;54086;50.126;8.710;2023-04-06T05:01:49;19.07;;;8.10;;
67156;SDS011;54086;50.126;8.710;2023-04-06T05:04:15;19.20;;;8.68;;
67156;SDS011;54086;50.126;8.710;2023-04-06T05:06:40;19.23;;;9.40;;
67156;SDS011;54086;50.126;8.710;2023-04-06T05:09:05;21.47;;;9.77;;
67156;SDS011;54086;50.126;8.710;2023-04-06T05:11:31;19.47;;;9.10;;
67156;SDS011;54086;50.126;8.710;2023-04-06T05:13:56;18.63;;;8.73;;
67156;SDS011;54086;50.126;8.710;2023-04-06T05:16:22;15.90;;;7.88;;
67156;SDS011;54086;50.126;8.710;2023-04-06T05:18:47;14.83;;;7.97;;
67156;SDS011;54086;50.126;8.710;2023-04-06T05:21:13;13.90;;;7.07;;
67156;SDS011;54086;50.126;8.710;2023-04-06T05:23:39;14.77;;;7.40;;
67156;SDS011;54086;50.126;8.710;2023-04-06T05:26:04;16.13;;;8.00;;
67156;SDS011;54086;50.126;8.710;2023-04-06T05:28:30;18.45;;;8.13;;
67156;SDS011;54086;50.126;8.710;2023-04-06T05:30:55;13.83;;;7.40;;
67156;SDS011;54086;50.126;8.710;2023-04-06T05:33:22;13.73;;;7.50;;
67156;SDS011;54086;50.126;8.710;2023-04-06T05:35:47;15.85;;;7.00;;
67156;SDS011;54086;50.126;8.710;2023-04-06T05:38:13;14.47;;;7.47;;
67156;SDS011;54086;50.126;8.710;2023-04-06T05:40:38;16.93;;;7.93;;
67156;SDS011;54086;50.126;8.710;2023-04-06T05:43:06;17.92;;;8.25;;
67156;SDS011;54086;50.126;8.710;2023-04-06T05:45:32;18.55;;;8.50;;
67156;SDS011;54086;50.126;8.710;2023-04-06T05:47:57;15.40;;;7.27;;
67156;SDS011;54086;50.126;8.710;2023-04-06T05:50:23;16.20;;;8.17;;
67156;SDS011;54086;50.126;8.710;2023-04-06T05:52:48;15.17;;;7.63;;
67156;SDS011;54086;50.126;8.710;2023-04-06T05:55:13;14.23;;;7.93;;
67156;SDS011;54086;50.126;8.710;2023-04-06T05:57:39;15.73;;;8.15;;
67156;SDS011;54086;50.126;8.710;2023-04-06T06:00:05;15.33;;;8.77;;
67156;SDS011;54086;50.126;8.710;2023-04-06T06:02:33;14.85;;;7.25;;
67156;SDS011;54086;50.126;8.710;2023-04-06T06:04:59;20.20;;;8.13;;
67156;SDS011;54086;50.126;8.710;2023-04-06T06:07:25;15.32;;;8.23;;
67156;SDS011;54086;50.126;8.710;2023-04-06T06:09:50;21.47;;;8.63;;
67156;SDS011;54086;50.126;8.710;2023-04-06T06:12:16;21.63;;;8.27;;
67156;SDS011;54086;50.126;8.710;2023-04-06T06:14:41;18.33;;;8.48;;
67156;SDS011;54086;50.126;8.710;2023-04-06T06:17:07;20.43;;;9.03;;
67156;SDS011;54086;50.126;8.710;2023-04-06T06:19:33;17.00;;;8.55;;
67156;SDS011;54086;50.126;8.710;2023-04-06T06:21:58;18.10;;;8.10;;
67156;SDS011;54086;50.126;8.710;2023-04-06T06:24:26;17.27;;;9.02;;
67156;SDS011;54086;50.126;8.710;2023-04-06T06:26:52;18.10;;;8.83;;
67156;SDS011;54086;50.126;8.710;2023-04-06T06:29:18;17.10;;;8.60;;
67156;SDS011;54086;50.126;8.710;2023-04-06T06:31:43;17.00;;;8.17;;
67156;SDS011;54086;50.126;8.710;2023-04-06T06:34:08;16.10;;;8.57;;
67156;SDS011;54086;50.126;8.710;2023-04-06T06:36:35;20.20;;;8.50;;
67156;SDS011;54086;50.126;8.710;2023-04-06T06:39:00;17.73;;;8.13;;
67156;SDS011;54086;50.126;8.710;2023-04-06T06:41:28;15.65;;;8.48;;
67156;SDS011;54086;50.126;8.710;2023-04-06T06:43:53;16.20;;;8.67;;
67156;SDS011;54086;50.126;8.710;2023-04-06T06:46:19;15.10;;;7.97;;
67156;SDS011;54086;50.126;8.710;2023-04-06T06:48:45;18.70;;;8.60;;
67156;SDS011;54086;50.126;8.710;2023-04-06T06:51:10;15.83;;;8.13;;
67156;SDS011;54086;50.126;8.710;2023-04-06T06:53:36;17.07;;;8.90;;
67156;SDS011;54086;50.126;8.710;2023-04-06T06:56:02;19.03;;;8.63;;
67156;SDS011;54086;50.126;8.710;2023-04-06T06:58:27;20.97;;;8.60;;
67156;SDS011;54086;50.126;8.710;2023-04-06T07:00:59;16.73;;;8.43;;
67156;SDS011;54086;50.126;8.710;2023-04-06T07:03:25;17.08;;;8.45;;
67156;SDS011;54086;50.126;8.710;2023-04-06T07:05:51;19.23;;;8.93;;
67156;SDS011;54086;50.126;8.710;2023-04-06T07:08:22;17.70;;;8.93;;
67156;SDS011;54086;50.126;8.710;2023-04-06T07:10:52;17.73;;;8.87;;
67156;SDS011;54086;50.126;8.710;2023-04-06T07:13:19;18.45;;;9.48;;
67156;SDS011;54086;50.126;8.710;2023-04-06T07:15:48;18.50;;;8.65;;
67156;SDS011;54086;50.126;8.710;2023-04-06T07:18:14;17.80;;;8.55;;
67156;SDS011;54086;50.126;8.710;2023-04-06T07:20:40;17.67;;;8.77;;
67156;SDS011;54086;50.126;8.710;2023-04-06T07:23:06;17.23;;;8.80;;
67156;SDS011;54086;50.126;8.710;2023-04-06T07:25:31;20.03;;;9.73;;
67156;SDS011;54086;50.126;8.710;2023-04-06T07:27:57;16.67;;;9.40;;
67156;SDS011;54086;50.126;8.710;2023-04-06T07:30:22;24.73;;;8.63;;
67156;SDS011;54086;50.126;8.710;2023-04-06T07:32:50;16.10;;;8.60;;
67156;SDS011;54086;50.126;8.710;2023-04-06T07:35:15;14.87;;;8.30;;
67156;SDS011;54086;50.126;8.710;2023-04-06T07:37:41;16.85;;;9.40;;
67156;SDS011;54086;50.126;8.710;2023-04-06T07:40:07;15.83;;;8.53;;
67156;SDS011;54086;50.126;8.710;2023-04-06T07:42:33;16.90;;;8.60;;
67156;SDS011;54086;50.126;8.710;2023-04-06T07:44:58;15.60;;;8.93;;
67156;SDS011;54086;50.126;8.710;2023-04-06T07:47:24;15.07;;;8.75;;
67156;SDS011;54086;50.126;8.710;2023-04-06T07:49:50;17.43;;;8.93;;
67156;SDS011;54086;50.126;8.710;2023-04-06T07:52:15;17.33;;;9.68;;
67156;SDS011;54086;50.126;8.710;2023-04-06T07:54:41;16.10;;;8.87;;
67156;SDS011;54086;50.126;8.710;2023-04-06T07:57:07;16.38;;;8.88;;
67156;SDS011;54086;50.126;8.710;2023-04-06T07:59:32;18.57;;;9.17;;
67156;SDS011;54086;50.126;8.710;2023-04-06T08:01:57;16.23;;;8.77;;
67156;SDS011;54086;50.126;8.710;2023-04-06T08:04:23;18.47;;;10.00;;
67156;SDS011;54086;50.126;8.710;2023-04-06T08:06:48;14.95;;;8.85;;
67156;SDS011;54086;50.126;8.710;2023-04-06T08:09:14;17.50;;;8.80;;
67156;SDS011;54086;50.126;8.710;2023-04-06T08:11:39;15.87;;;8.40;;
67156;SDS011;54086;50.126;8.710;2023-04-06T08:14:05;17.42;;;9.50;;
67156;SDS011;54086;50.126;8.710;2023-04-06T08:16:31;15.17;;;8.57;;
67156;SDS011;54086;50.126;8.710;2023-04-06T08:18:56;14.93;;;9.20;;
67156;SDS011;54086;50.126;8.710;2023-04-06T08:21:22;16.53;;;8.60;;
67156;SDS011;54086;50.126;8.710;2023-04-06T08:23:47;15.50;;;8.73;;
67156;SDS011;54086;50.126;8.710;2023-04-06T08:26:13;16.55;;;9.25;;
67156;SDS011;54086;50.126;8.710;2023-04-06T08:28:38;13.77;;;8.47;;
67156;SDS011;54086;50.126;8.710;2023-04-06T08:31:06;14.80;;;8.30;;
67156;SDS011;54086;50.126;8.710;2023-04-06T08:33:35;15.60;;;8.73;;
67156;SDS011;54086;50.126;8.710;2023-04-06T08:36:08;16.63;;;9.13;;
67156;SDS011;54086;50.126;8.710;2023-04-06T08:38:37;14.80;;;7.97;;
67156;SDS011;54086;50.126;8.710;2023-04-06T08:41:07;14.70;;;8.55;;
67156;SDS011;54086;50.126;8.710;2023-04-06T08:43:58;15.60;;;8.88;;
67156;SDS011;54086;50.126;8.710;2023-04-06T08:46:23;15.63;;;8.70;;
67156;SDS011;54086;50.126;8.710;2023-04-06T08:48:55;15.30;;;8.85;;
67156;SDS011;54086;50.126;8.710;2023-04-06T08:51:25;13.80;;;8.47;;
67156;SDS011;54086;50.126;8.710;2023-04-06T08:53:55;16.75;;;8.90;;
67156;SDS011;54086;50.126;8.710;2023-04-06T08:56:22;15.65;;;8.93;;
67156;SDS011;54086;50.126;8.710;2023-04-06T08:58:49;14.73;;;8.38;;
67156;SDS011;54086;50.126;8.710;2023-04-06T09:01:17;14.48;;;8.27;;
67156;SDS011;54086;50.126;8.710;2023-04-06T09:03:45;13.80;;;7.60;;
67156;SDS011;54086;50.126;8.710;2023-04-06T09:06:11;16.90;;;8.20;;
67156;SDS011;54086;50.126;8.710;2023-04-06T09:08:38;14.32;;;8.15;;
67156;SDS011;54086;50.126;8.710;2023-04-06T09:11:05;14.05;;;8.63;;
67156;SDS011;54086;50.126;8.710;2023-04-06T09:13:31;12.40;;;8.40;;
67156;SDS011;54086;50.126;8.710;2023-04-06T09:16:03;16.40;;;8.93;;
67156;SDS011;54086;50.126;8.710;2023-04-06T09:18:31;18.00;;;8.50;;
67156;SDS011;54086;50.126;8.710;2023-04-06T09:21:04;15.23;;;8.77;;
67156;SDS011;54086;50.126;8.710;2023-04-06T09:23:30;13.60;;;8.30;;
67156;SDS011;54086;50.126;8.710;2023-04-06T09:26:15;14.87;;;8.30;;
67156;SDS011;54086;50.126;8.710;2023-04-06T09:28:49;14.32;;;9.02;;
67156;SDS011;54086;50.126;8.710;2023-04-06T09:31:16;14.13;;;8.02;;
67156;SDS011;54086;50.126;8.710;2023-04-06T09:33:47;12.65;;;7.75;;
67156;SDS011;54086;50.126;8.710;2023-04-06T09:36:13;17.90;;;7.60;;
67156;SDS011;54086;50.126;8.710;2023-04-06T09:38:57;15.05;;;7.07;;
67156;SDS011;54086;50.126;8.710;2023-04-06T09:41:27;16.27;;;7.72;;
67156;SDS011;54086;50.126;8.710;2023-04-06T09:44:07;14.88;;;8.18;;
67156;SDS011;54086;50.126;8.710;2023-04-06T09:46:36;15.17;;;8.20;;
67156;SDS011;54086;50.126;8.710;2023-04-06T09:49:04;14.90;;;8.38;;
67156;SDS011;54086;50.126;8.710;2023-04-06T09:51:36;15.88;;;8.15;;
67156;SDS011;54086;50.126;8.710;2023-04-06T09:54:01;15.27;;;8.10;;
67156;SDS011;54086;50.126;8.710;2023-04-06T09:56:28;14.07;;;7.90;;
67156;SDS011;54086;50.126;8.710;2023-04-06T09:59:01;14.67;;;8.40;;
67156;SDS011;54086;50.126;8.710;2023-04-06T10:01:32;15.40;;;8.05;;
67156;SDS011;54086;50.126;8.710;2023-04-06T10:07:01;14.57;;;8.13;;
67156;SDS011;54086;50.126;8.710;2023-04-06T10:09:28;15.07;;;8.15;;
67156;SDS011;54086;50.126;8.710;2023-04-06T10:12:01;13.73;;;7.70;;
67156;SDS011;54086;50.126;8.710;2023-04-06T10:14:28;12.25;;;7.55;;
67156;SDS011;54086;50.126;8.710;2023-04-06T10:16:53;13.30;;;7.28;;
67156;SDS011;54086;50.126;8.710;2023-04-06T10:19:21;14.17;;;8.20;;
67156;SDS011;54086;50.126;8.710;2023-04-06T10:21:52;15.35;;;7.60;;
67156;SDS011;54086;50.126;8.710;2023-04-06T10:24:20;14.85;;;7.45;;
67156;SDS011;54086;50.126;8.710;2023-04-06T10:27:00;13.63;;;6.87;;
67156;SDS011;54086;50.126;8.710;2023-04-06T10:29:27;14.73;;;7.07;;
67156;SDS011;54086;50.126;8.710;2023-04-06T10:31:52;14.00;;;7.37;;
67156;SDS011;54086;50.126;8.710;2023-04-06T10:34:20;14.38;;;7.28;;
67156;SDS011;54086;50.126;8.710;2023-04-06T10:36:45;15.52;;;7.65;;
67156;SDS011;54086;50.126;8.710;2023-04-06T10:39:11;14.07;;;7.57;;
67156;SDS011;54086;50.126;8.710;2023-04-06T10:41:40;18.90;;;7.47;;
67156;SDS011;54086;50.126;8.710;2023-04-06T10:44:07;13.07;;;7.10;;
67156;SDS011;54086;50.126;8.710;2023-04-06T10:46:33;14.47;;;7.00;;
67156;SDS011;54086;50.126;8.710;2023-04-06T10:49:09;14.30;;;7.43;;
67156;SDS011;54086;50.126;8.710;2023-04-06T10:51:37;14.45;;;7.05;;
67156;SDS011;54086;50.126;8.710;2023-04-06T10:54:03;16.38;;;7.53;;
67156;SDS011;54086;50.126;8.710;2023-04-06T10:56:31;14.65;;;7.93;;
67156;SDS011;54086;50.126;8.710;2023-04-06T10:58:59;13.67;;;7.10;;
67156;SDS011;54086;50.126;8.710;2023-04-06T11:01:24;16.38;;;7.57;;
67156;SDS011;54086;50.126;8.710;2023-04-06T11:03:53;14.93;;;7.87;;
67156;SDS011;54086;50.126;8.710;2023-04-06T11:06:24;15.52;;;7.43;;
67156;SDS011;54086;50.126;8.710;2023-04-06T11:08:51;15.10;;;7.40;;
67156;SDS011;54086;50.126;8.710;2023-04-06T11:11:19;14.13;;;7.18;;
67156;SDS011;54086;50.126;8.710;2023-04-06T11:18:46;17.75;;;7.60;;
67156;SDS011;54086;50.126;8.710;2023-04-06T11:21:12;17.57;;;7.37;;
67156;SDS011;54086;50.126;8.710;2023-04-06T11:23:38;15.95;;;7.40;;
67156;SDS011;54086;50.126;8.710;2023-04-06T11:26:03;15.70;;;7.77;;
67156;SDS011;54086;50.126;8.710;2023-04-06T11:28:29;15.23;;;7.97;;
67156;SDS011;54086;50.126;8.710;2023-04-06T11:30:55;18.13;;;8.45;;
67156;SDS011;54086;50.126;8.710;2023-04-06T11:33:21;17.33;;;8.68;;
67156;SDS011;54086;50.126;8.710;2023-04-06T11:35:49;18.97;;;8.10;;
67156;SDS011;54086;50.126;8.710;2023-04-06T11:38:16;14.23;;;7.85;;
67156;SDS011;54086;50.126;8.710;2023-04-06T11:40:43;17.77;;;8.75;;
67156;SDS011;54086;50.126;8.710;2023-04-06T11:43:10;15.90;;;8.43;;
67156;SDS011;54086;50.126;8.710;2023-04-06T11:45:42;14.32;;;7.65;;
67156;SDS011;54086;50.126;8.710;2023-04-06T11:48:17;15.63;;;8.07;;
67156;SDS011;54086;50.126;8.710;2023-04-06T11:50:46;13.73;;;7.10;;
67156;SDS011;54086;50.126;8.710;2023-04-06T11:53:12;14.93;;;7.35;;
67156;SDS011;54086;50.126;8.710;2023-04-06T11:55:38;16.20;;;8.00;;
67156;SDS011;54086;50.126;8.710;2023-04-06T11:58:04;16.80;;;7.95;;
67156;SDS011;54086;50.126;8.710;2023-04-06T12:00:29;15.00;;;7.78;;
67156;SDS011;54086;50.126;8.710;2023-04-06T12:02:59;15.10;;;7.73;;
67156;SDS011;54086;50.126;8.710;2023-04-06T12:05:25;15.48;;;7.90;;
67156;SDS011;54086;50.126;8.710;2023-04-06T12:07:50;15.30;;;7.73;;
67156;SDS011;54086;50.126;8.710;2023-04-06T12:10:16;15.15;;;7.82;;
67156;SDS011;54086;50.126;8.710;2023-04-06T12:12:41;13.00;;;7.27;;
67156;SDS011;54086;50.126;8.710;2023-04-06T12:15:07;16.17;;;7.30;;
67156;SDS011;54086;50.126;8.710;2023-04-06T12:17:33;14.35;;;7.65;;
67156;SDS011;54086;50.126;8.710;2023-04-06T12:19:58;16.00;;;8.10;;
67156;SDS011;54086;50.126;8.710;2023-04-06T12:22:23;15.20;;;7.90;;
67156;SDS011;54086;50.126;8.710;2023-04-06T12:24:49;15.65;;;7.57;;
67156;SDS011;54086;50.126;8.710;2023-04-06T12:27:14;16.47;;;9.00;;
67156;SDS011;54086;50.126;8.710;2023-04-06T12:29:40;12.98;;;7.63;;
67156;SDS011;54086;50.126;8.710;2023-04-06T12:32:05;14.00;;;6.90;;
67156;SDS011;54086;50.126;8.710;2023-04-06T12:34:31;13.53;;;7.17;;
67156;SDS011;54086;50.126;8.710;2023-04-06T12:36:57;13.75;;;6.68;;
67156;SDS011;54086;50.126;8.710;2023-04-06T12:39:22;14.97;;;7.67;;
67156;SDS011;54086;50.126;8.710;2023-04-06T12:41:48;14.43;;;6.95;;
67156;SDS011;54086;50.126;8.710;2023-04-06T12:44:13;14.77;;;7.60;;
67156;SDS011;54086;50.126;8.710;2023-04-06T12:46:38;15.07;;;7.53;;
67156;SDS011;54086;50.126;8.710;2023-04-06T12:49:04;14.53;;;7.33;;
67156;SDS011;54086;50.126;8.710;2023-04-06T12:51:30;13.57;;;7.57;;
67156;SDS011;54086;50.126;8.710;2023-04-06T12:53:56;14.98;;;7.05;;
67156;SDS011;54086;50.126;8.710;2023-04-06T12:56:22;14.33;;;6.93;;
67156;SDS011;54086;50.126;8.710;2023-04-06T12:58:47;12.40;;;6.82;;
67156;SDS011;54086;50.126;8.710;2023-04-06T13:01:13;14.40;;;7.20;;
67156;SDS011;54086;50.126;8.710;2023-04-06T13:03:39;13.67;;;6.67;;
67156;SDS011;54086;50.126;8.710;2023-04-06T13:06:05;13.82;;;7.70;;
67156;SDS011;54086;50.126;8.710;2023-04-06T13:08:33;15.32;;;7.10;;
67156;SDS011;54086;50.126;8.710;2023-04-06T13:10:58;13.45;;;7.75;;
67156;SDS011;54086;50.126;8.710;2023-04-06T13:13:25;13.47;;;7.30;;
67156;SDS011;54086;50.126;8.710;2023-04-06T13:15:53;12.43;;;6.70;;
67156;SDS011;54086;50.126;8.710;2023-04-06T13:18:19;13.03;;;6.70;;
67156;SDS011;54086;50.126;8.710;2023-04-06T13:20:46;12.85;;;6.38;;
67156;SDS011;54086;50.126;8.710;2023-04-06T13:23:11;14.00;;;6.75;;
67156;SDS011;54086;50.126;8.710;2023-04-06T13:25:37;12.50;;;6.53;;
67156;SDS011;54086;50.126;8.710;2023-04-06T13:28:02;13.93;;;6.83;;
67156;SDS011;54086;50.126;8.710;2023-04-06T13:30:28;13.03;;;6.67;;
67156;SDS011;54086;50.126;8.710;2023-04-06T13:32:53;13.03;;;6.83;;
67156;SDS011;54086;50.126;8.710;2023-04-06T13:35:18;11.83;;;6.50;;
67156;SDS011;54086;50.126;8.710;2023-04-06T13:37:44;12.00;;;6.53;;
67156;SDS011;54086;50.126;8.710;2023-04-06T13:40:10;12.07;;;6.53;;
67156;SDS011;54086;50.126;8.710;2023-04-06T13:42:36;13.27;;;6.83;;
67156;SDS011;54086;50.126;8.710;2023-04-06T13:45:03;11.82;;;6.28;;
67156;SDS011;54086;50.126;8.710;2023-04-06T13:47:29;11.30;;;5.85;;
67156;SDS011;54086;50.126;8.710;2023-04-06T13:49:54;10.27;;;5.40;;
67156;SDS011;54086;50.126;8.710;2023-04-06T13:52:21;12.73;;;6.82;;
67156;SDS011;54086;50.126;8.710;2023-04-06T13:54:46;11.65;;;6.18;;
67156;SDS011;54086;50.126;8.710;2023-04-06T13:57:13;15.88;;;6.25;;
67156;SDS011;54086;50.126;8.710;2023-04-06T13:59:39;11.63;;;5.70;;
67156;SDS011;54086;50.126;8.710;2023-04-06T14:02:06;13.23;;;6.67;;
67156;SDS011;54086;50.126;8.710;2023-04-06T14:04:32;13.32;;;7.20;;
67156;SDS011;54086;50.126;8.710;2023-04-06T14:06:58;12.57;;;6.38;;
67156;SDS011;54086;50.126;8.710;2023-04-06T14:09:24;14.10;;;6.95;;
67156;SDS011;54086;50.126;8.710;2023-04-06T14:11:50;12.67;;;6.80;;
67156;SDS011;54086;50.126;8.710;2023-04-06T14:14:16;14.97;;;6.67;;
67156;SDS011;54086;50.126;8.710;2023-04-06T14:16:42;13.63;;;6.18;;
67156;SDS011;54086;50.126;8.710;2023-04-06T14:19:11;11.93;;;6.17;;
67156;SDS011;54086;50.126;8.710;2023-04-06T14:21:37;12.90;;;6.78;;
67156;SDS011;54086;50.126;8.710;2023-04-06T14:24:04;11.68;;;6.25;;
67156;SDS011;54086;50.126;8.710;2023-04-06T14:26:30;12.32;;;6.78;;
67156;SDS011;54086;50.126;8.710;2023-04-06T14:28:57;11.70;;;6.50;;
67156;SDS011;54086;50.126;8.710;2023-04-06T14:31:23;12.80;;;7.50;;
67156;SDS011;54086;50.126;8.710;2023-04-06T14:33:48;12.67;;;6.77;;
67156;SDS011;54086;50.126;8.710;2023-04-06T14:36:14;11.05;;;6.15;;